sensor_id;sensor_type;location;lat;lon;timestamp;pressure;altitude;pressure_sealevel;temperature;humidity
10978;BME280;5542;48.272;10.794;2023-06-22T00:02:16;95783.53;;;19.92;86.87
10978;BME280;5542;48.272;10.794;2023-06-22T00:04:42;95795.13;;;20.06;86.20
10978;BME280;5542;48.272;10.794;2023-06-22T00:07:09;95778.25;;;20.11;85.49
10978;BME280;5542;48.272;10.794;2023-06-22T00:09:37;95770.28;;;20.06;85.15
10978;BME280;5542;48.272;10.794;2023-06-22T00:12:04;95773.75;;;20.06;85.11
10978;BME280;5542;48.272;10.794;2023-06-22T00:14:31;95776.50;;;20.20;84.63
10978;BME280;5542;48.272;10.794;2023-06-22T00:16:58;95779.28;;;20.34;83.81
10978;BME280;5542;48.272;10.794;2023-06-22T00:19:24;95782.44;;;20.36;83.02
10978;BME280;5542;48.272;10.794;2023-06-22T00:21:51;95781.50;;;20.45;82.36
10978;BME280;5542;48.272;10.794;2023-06-22T00:24:18;95780.56;;;20.55;81.63
10978;BME280;5542;48.272;10.794;2023-06-22T00:26:47;95779.44;;;20.61;81.14
10978;BME280;5542;48.272;10.794;2023-06-22T00:29:14;95779.13;;;20.63;80.91
10978;BME280;5542;48.272;10.794;2023-06-22T00:31:40;95785.97;;;20.69;80.23
10978;BME280;5542;48.272;10.794;2023-06-22T00:34:07;95782.44;;;20.74;80.10
10978;BME280;5542;48.272;10.794;2023-06-22T00:36:34;95780.44;;;20.65;79.74
10978;BME280;5542;48.272;10.794;2023-06-22T00:39:00;95773.78;;;20.44;80.75
10978;BME280;5542;48.272;10.794;2023-06-22T00:41:27;95765.34;;;20.18;82.27
10978;BME280;5542;48.272;10.794;2023-06-22T00:43:56;95761.44;;;20.10;82.83
10978;BME280;5542;48.272;10.794;2023-06-22T00:46:22;95755.38;;;20.05;83.17
10978;BME280;5542;48.272;10.794;2023-06-22T00:48:50;95758.38;;;19.98;83.13
10978;BME280;5542;48.272;10.794;2023-06-22T00:51:18;95742.34;;;19.98;83.32
10978;BME280;5542;48.272;10.794;2023-06-22T00:53:49;95733.69;;;19.87;83.80
10978;BME280;5542;48.272;10.794;2023-06-22T00:56:16;95740.19;;;19.81;84.20
10978;BME280;5542;48.272;10.794;2023-06-22T00:58:44;95739.16;;;19.77;84.50
10978;BME280;5542;48.272;10.794;2023-06-22T01:01:13;95743.16;;;19.80;84.58
10978;BME280;5542;48.272;10.794;2023-06-22T01:03:40;95740.84;;;19.92;83.80
10978;BME280;5542;48.272;10.794;2023-06-22T01:06:09;95746.03;;;20.02;83.24
10978;BME280;5542;48.272;10.794;2023-06-22T01:08:49;95748.88;;;20.11;82.74
10978;BME280;5542;48.272;10.794;2023-06-22T01:11:20;95737.94;;;19.88;83.58
10978;BME280;5542;48.272;10.794;2023-06-22T01:13:53;95747.66;;;19.79;84.10
10978;BME280;5542;48.272;10.794;2023-06-22T01:16:26;95753.91;;;19.69;84.63
10978;BME280;5542;48.272;10.794;2023-06-22T01:18:57;95754.00;;;19.59;85.48
10978;BME280;5542;48.272;10.794;2023-06-22T01:21:25;95758.31;;;19.55;86.00
10978;BME280;5542;48.272;10.794;2023-06-22T01:24:04;95749.75;;;19.58;85.32
10978;BME280;5542;48.272;10.794;2023-06-22T01:26:39;95749.94;;;19.43;86.24
10978;BME280;5542;48.272;10.794;2023-06-22T01:29:11;95751.88;;;19.37;86.99
10978;BME280;5542;48.272;10.794;2023-06-22T01:31:40;95747.78;;;19.45;86.20
10978;BME280;5542;48.272;10.794;2023-06-22T01:34:08;95761.19;;;19.64;85.47
10978;BME280;5542;48.272;10.794;2023-06-22T01:36:36;95769.53;;;19.81;84.23
10978;BME280;5542;48.272;10.794;2023-06-22T01:39:04;95767.31;;;19.88;83.51
10978;BME280;5542;48.272;10.794;2023-06-22T01:41:36;95763.91;;;19.83;83.39
10978;BME280;5542;48.272;10.794;2023-06-22T01:44:05;95771.53;;;19.71;84.22
10978;BME280;5542;48.272;10.794;2023-06-22T01:46:34;95762.06;;;19.54;84.92
10978;BME280;5542;48.272;10.794;2023-06-22T01:49:01;95771.66;;;19.55;84.90
10978;BME280;5542;48.272;10.794;2023-06-22T01:51:28;95771.53;;;19.71;84.14
10978;BME280;5542;48.272;10.794;2023-06-22T01:53:55;95771.91;;;19.83;83.18
10978;BME280;5542;48.272;10.794;2023-06-22T01:56:22;95774.03;;;19.86;82.73
10978;BME280;5542;48.272;10.794;2023-06-22T01:58:52;95774.91;;;20.00;81.79
10978;BME280;5542;48.272;10.794;2023-06-22T02:01:25;95769.69;;;19.90;81.85
10978;BME280;5542;48.272;10.794;2023-06-22T02:04:01;95770.81;;;19.84;82.66
10978;BME280;5542;48.272;10.794;2023-06-22T02:06:33;95765.97;;;19.67;83.28
10978;BME280;5542;48.272;10.794;2023-06-22T02:09:07;95764.16;;;19.62;83.97
10978;BME280;5542;48.272;10.794;2023-06-22T02:11:36;95755.03;;;19.39;85.40
10978;BME280;5542;48.272;10.794;2023-06-22T02:14:04;95757.63;;;19.21;86.62
10978;BME280;5542;48.272;10.794;2023-06-22T02:16:32;95759.88;;;19.08;87.46
10978;BME280;5542;48.272;10.794;2023-06-22T02:19:01;95764.59;;;18.87;88.55
10978;BME280;5542;48.272;10.794;2023-06-22T02:21:28;95768.78;;;18.93;88.50
10978;BME280;5542;48.272;10.794;2023-06-22T02:23:55;95775.69;;;19.00;88.09
10978;BME280;5542;48.272;10.794;2023-06-22T02:26:22;95785.03;;;18.97;88.12
10978;BME280;5542;48.272;10.794;2023-06-22T02:28:50;95783.69;;;19.00;88.28
10978;BME280;5542;48.272;10.794;2023-06-22T02:31:17;95777.31;;;18.96;88.40
10978;BME280;5542;48.272;10.794;2023-06-22T02:33:43;95774.38;;;18.97;88.02
10978;BME280;5542;48.272;10.794;2023-06-22T02:36:11;95771.41;;;18.99;88.26
10978;BME280;5542;48.272;10.794;2023-06-22T02:38:38;95774.59;;;19.01;88.14
10978;BME280;5542;48.272;10.794;2023-06-22T02:41:05;95770.38;;;19.00;88.38
10978;BME280;5542;48.272;10.794;2023-06-22T02:43:31;95775.41;;;19.01;88.20
10978;BME280;5542;48.272;10.794;2023-06-22T02:45:58;95768.75;;;18.99;87.78
10978;BME280;5542;48.272;10.794;2023-06-22T02:48:24;95763.84;;;18.82;88.69
10978;BME280;5542;48.272;10.794;2023-06-22T02:50:51;95758.81;;;18.80;88.97
10978;BME280;5542;48.272;10.794;2023-06-22T02:53:19;95768.84;;;18.88;89.11
10978;BME280;5542;48.272;10.794;2023-06-22T02:55:46;95765.00;;;18.71;90.00
10978;BME280;5542;48.272;10.794;2023-06-22T02:58:12;95769.56;;;18.60;90.86
10978;BME280;5542;48.272;10.794;2023-06-22T03:00:39;95771.22;;;18.51;91.88
10978;BME280;5542;48.272;10.794;2023-06-22T03:03:05;95775.22;;;18.53;91.85
10978;BME280;5542;48.272;10.794;2023-06-22T03:05:32;95771.00;;;18.47;92.37
10978;BME280;5542;48.272;10.794;2023-06-22T03:08:00;95769.94;;;18.48;92.54
10978;BME280;5542;48.272;10.794;2023-06-22T03:10:28;95772.38;;;18.39;93.18
10978;BME280;5542;48.272;10.794;2023-06-22T03:12:54;95776.66;;;18.35;93.69
10978;BME280;5542;48.272;10.794;2023-06-22T03:15:21;95770.50;;;18.40;93.85
10978;BME280;5542;48.272;10.794;2023-06-22T03:17:47;95771.00;;;18.47;93.18
10978;BME280;5542;48.272;10.794;2023-06-22T03:20:14;95768.84;;;18.49;92.98
10978;BME280;5542;48.272;10.794;2023-06-22T03:22:41;95756.38;;;18.45;93.44
10978;BME280;5542;48.272;10.794;2023-06-22T03:25:09;95761.69;;;18.45;93.41
10978;BME280;5542;48.272;10.794;2023-06-22T03:27:39;95751.53;;;18.47;93.49
10978;BME280;5542;48.272;10.794;2023-06-22T03:30:08;95759.00;;;18.50;93.44
10978;BME280;5542;48.272;10.794;2023-06-22T03:32:35;95764.53;;;18.58;92.61
10978;BME280;5542;48.272;10.794;2023-06-22T03:35:02;95762.13;;;18.62;92.01
10978;BME280;5542;48.272;10.794;2023-06-22T03:37:29;95764.53;;;18.58;92.28
10978;BME280;5542;48.272;10.794;2023-06-22T03:39:55;95757.81;;;18.66;91.28
10978;BME280;5542;48.272;10.794;2023-06-22T03:42:22;95766.16;;;18.54;92.13
10978;BME280;5542;48.272;10.794;2023-06-22T03:44:50;95765.19;;;18.40;93.42
10978;BME280;5542;48.272;10.794;2023-06-22T03:47:17;95759.09;;;18.34;94.10
10978;BME280;5542;48.272;10.794;2023-06-22T03:49:43;95762.88;;;18.28;94.36
10978;BME280;5542;48.272;10.794;2023-06-22T03:52:10;95773.72;;;18.42;93.93
10978;BME280;5542;48.272;10.794;2023-06-22T03:54:37;95779.19;;;18.56;93.46
10978;BME280;5542;48.272;10.794;2023-06-22T03:57:04;95782.00;;;18.75;92.55
10978;BME280;5542;48.272;10.794;2023-06-22T03:59:30;95776.44;;;19.05;89.55
10978;BME280;5542;48.272;10.794;2023-06-22T04:01:59;95765.91;;;18.90;90.20
10978;BME280;5542;48.272;10.794;2023-06-22T04:04:25;95764.69;;;18.77;91.64
10978;BME280;5542;48.272;10.794;2023-06-22T04:06:52;95774.84;;;18.70;92.44
10978;BME280;5542;48.272;10.794;2023-06-22T04:09:18;95777.06;;;18.58;93.90
10978;BME280;5542;48.272;10.794;2023-06-22T04:11:46;95772.44;;;18.74;93.54
10978;BME280;5542;48.272;10.794;2023-06-22T04:14:13;95770.25;;;18.81;92.99
10978;BME280;5542;48.272;10.794;2023-06-22T04:16:39;95768.84;;;18.88;92.38
10978;BME280;5542;48.272;10.794;2023-06-22T04:19:07;95766.50;;;18.82;92.81
10978;BME280;5542;48.272;10.794;2023-06-22T04:21:39;95771.59;;;18.78;92.58
10978;BME280;5542;48.272;10.794;2023-06-22T04:24:06;95779.88;;;18.77;93.23
10978;BME280;5542;48.272;10.794;2023-06-22T04:26:32;95777.78;;;18.68;94.51
10978;BME280;5542;48.272;10.794;2023-06-22T04:29:02;95769.25;;;18.72;94.44
10978;BME280;5542;48.272;10.794;2023-06-22T04:31:30;95764.47;;;18.68;95.02
10978;BME280;5542;48.272;10.794;2023-06-22T04:34:02;95767.13;;;18.68;95.24
10978;BME280;5542;48.272;10.794;2023-06-22T04:36:33;95761.81;;;18.68;95.88
10978;BME280;5542;48.272;10.794;2023-06-22T04:39:04;95769.72;;;18.79;95.89
10978;BME280;5542;48.272;10.794;2023-06-22T04:41:30;95778.91;;;18.97;94.38
10978;BME280;5542;48.272;10.794;2023-06-22T04:44:08;95778.06;;;19.01;93.84
10978;BME280;5542;48.272;10.794;2023-06-22T04:46:34;95776.34;;;19.15;92.90
10978;BME280;5542;48.272;10.794;2023-06-22T04:49:04;95777.72;;;19.08;93.04
10978;BME280;5542;48.272;10.794;2023-06-22T04:51:38;95785.50;;;19.04;94.22
10978;BME280;5542;48.272;10.794;2023-06-22T04:54:05;95779.50;;;19.17;93.45
10978;BME280;5542;48.272;10.794;2023-06-22T04:56:31;95766.25;;;19.36;92.49
10978;BME280;5542;48.272;10.794;2023-06-22T04:58:58;95766.00;;;19.38;91.93
10978;BME280;5542;48.272;10.794;2023-06-22T05:01:25;95748.34;;;19.42;91.34
10978;BME280;5542;48.272;10.794;2023-06-22T05:03:51;95746.47;;;19.42;91.86
10978;BME280;5542;48.272;10.794;2023-06-22T05:06:21;95742.09;;;19.28;93.80
10978;BME280;5542;48.272;10.794;2023-06-22T05:08:51;95748.22;;;19.28;94.18
10978;BME280;5542;48.272;10.794;2023-06-22T05:11:17;95760.13;;;19.36;94.65
10978;BME280;5542;48.272;10.794;2023-06-22T05:13:44;95746.06;;;19.54;93.63
10978;BME280;5542;48.272;10.794;2023-06-22T05:16:10;95743.34;;;19.59;92.31
10978;BME280;5542;48.272;10.794;2023-06-22T05:18:37;95741.91;;;19.72;92.06
10978;BME280;5542;48.272;10.794;2023-06-22T05:21:04;95734.06;;;19.81;90.86
10978;BME280;5542;48.272;10.794;2023-06-22T05:23:30;95734.56;;;19.83;90.36
10978;BME280;5542;48.272;10.794;2023-06-22T05:25:58;95733.47;;;19.84;88.93
10978;BME280;5542;48.272;10.794;2023-06-22T05:28:25;95725.31;;;19.75;89.82
10978;BME280;5542;48.272;10.794;2023-06-22T05:30:51;95732.03;;;19.91;89.13
10978;BME280;5542;48.272;10.794;2023-06-22T05:33:18;95739.78;;;20.12;88.68
10978;BME280;5542;48.272;10.794;2023-06-22T05:35:44;95741.16;;;20.09;87.95
10978;BME280;5542;48.272;10.794;2023-06-22T05:38:12;95731.75;;;19.93;88.42
10978;BME280;5542;48.272;10.794;2023-06-22T05:40:38;95734.16;;;19.94;88.85
10978;BME280;5542;48.272;10.794;2023-06-22T05:43:06;95737.53;;;20.00;89.94
10978;BME280;5542;48.272;10.794;2023-06-22T05:45:33;95737.47;;;20.24;88.12
10978;BME280;5542;48.272;10.794;2023-06-22T05:47:59;95752.88;;;20.51;85.51
10978;BME280;5542;48.272;10.794;2023-06-22T05:50:26;95743.78;;;20.52;83.98
10978;BME280;5542;48.272;10.794;2023-06-22T05:52:53;95742.59;;;20.58;84.94
10978;BME280;5542;48.272;10.794;2023-06-22T05:55:19;95740.41;;;20.60;84.07
10978;BME280;5542;48.272;10.794;2023-06-22T05:57:46;95732.47;;;20.74;83.57
10978;BME280;5542;48.272;10.794;2023-06-22T06:00:15;95724.16;;;20.76;83.29
10978;BME280;5542;48.272;10.794;2023-06-22T06:02:41;95724.81;;;20.67;84.55
10978;BME280;5542;48.272;10.794;2023-06-22T06:05:10;95716.91;;;20.62;85.50
10978;BME280;5542;48.272;10.794;2023-06-22T06:07:36;95724.25;;;20.70;84.87
10978;BME280;5542;48.272;10.794;2023-06-22T06:10:03;95728.38;;;20.95;82.79
10978;BME280;5542;48.272;10.794;2023-06-22T06:12:31;95716.41;;;21.07;83.53
10978;BME280;5542;48.272;10.794;2023-06-22T06:14:58;95714.06;;;21.19;81.22
10978;BME280;5542;48.272;10.794;2023-06-22T06:17:26;95716.78;;;21.33;80.99
10978;BME280;5542;48.272;10.794;2023-06-22T06:19:52;95715.88;;;21.37;81.87
10978;BME280;5542;48.272;10.794;2023-06-22T06:22:19;95712.00;;;21.57;78.99
10978;BME280;5542;48.272;10.794;2023-06-22T06:24:47;95722.03;;;21.65;79.09
10978;BME280;5542;48.272;10.794;2023-06-22T06:27:13;95724.19;;;21.77;78.93
10978;BME280;5542;48.272;10.794;2023-06-22T06:29:40;95716.84;;;21.83;80.04
10978;BME280;5542;48.272;10.794;2023-06-22T06:32:08;95732.31;;;21.86;79.65
10978;BME280;5542;48.272;10.794;2023-06-22T06:34:36;95727.41;;;22.02;79.47
10978;BME280;5542;48.272;10.794;2023-06-22T06:37:03;95723.69;;;22.39;76.35
10978;BME280;5542;48.272;10.794;2023-06-22T06:39:29;95723.13;;;22.28;73.37
10978;BME280;5542;48.272;10.794;2023-06-22T06:41:56;95716.63;;;22.43;74.23
10978;BME280;5542;48.272;10.794;2023-06-22T06:44:22;95716.16;;;22.41;73.98
10978;BME280;5542;48.272;10.794;2023-06-22T06:46:49;95717.47;;;22.52;72.81
10978;BME280;5542;48.272;10.794;2023-06-22T06:49:16;95711.03;;;22.75;72.10
10978;BME280;5542;48.272;10.794;2023-06-22T06:51:43;95714.97;;;22.78;72.52
10978;BME280;5542;48.272;10.794;2023-06-22T06:54:10;95713.66;;;22.89;71.25
10978;BME280;5542;48.272;10.794;2023-06-22T06:56:37;95712.75;;;22.94;70.53
10978;BME280;5542;48.272;10.794;2023-06-22T06:59:04;95703.50;;;23.09;70.70
10978;BME280;5542;48.272;10.794;2023-06-22T07:01:30;95702.50;;;23.36;69.32
10978;BME280;5542;48.272;10.794;2023-06-22T07:03:59;95699.06;;;23.44;68.77
10978;BME280;5542;48.272;10.794;2023-06-22T07:06:25;95705.72;;;23.46;69.01
10978;BME280;5542;48.272;10.794;2023-06-22T07:08:56;95702.94;;;23.60;68.55
10978;BME280;5542;48.272;10.794;2023-06-22T07:11:22;95701.81;;;23.61;68.40
10978;BME280;5542;48.272;10.794;2023-06-22T07:13:49;95694.94;;;23.86;67.31
10978;BME280;5542;48.272;10.794;2023-06-22T07:16:15;95688.81;;;23.94;66.84
10978;BME280;5542;48.272;10.794;2023-06-22T07:18:42;95686.59;;;24.05;66.46
10978;BME280;5542;48.272;10.794;2023-06-22T07:21:08;95688.97;;;24.15;66.28
10978;BME280;5542;48.272;10.794;2023-06-22T07:23:35;95679.69;;;24.39;66.08
10978;BME280;5542;48.272;10.794;2023-06-22T07:26:03;95688.69;;;24.60;66.45
10978;BME280;5542;48.272;10.794;2023-06-22T07:28:31;95684.38;;;24.76;63.69
10978;BME280;5542;48.272;10.794;2023-06-22T07:31:02;95679.78;;;24.77;62.86
10978;BME280;5542;48.272;10.794;2023-06-22T07:33:29;95679.78;;;24.86;62.67
10978;BME280;5542;48.272;10.794;2023-06-22T07:35:55;95682.56;;;25.07;62.87
10978;BME280;5542;48.272;10.794;2023-06-22T07:38:22;95674.47;;;25.24;62.02
10978;BME280;5542;48.272;10.794;2023-06-22T07:40:49;95670.69;;;25.54;63.21
10978;BME280;5542;48.272;10.794;2023-06-22T07:43:17;95679.81;;;25.92;60.04
10978;BME280;5542;48.272;10.794;2023-06-22T07:45:48;95668.78;;;26.05;58.49
10978;BME280;5542;48.272;10.794;2023-06-22T07:48:17;95679.38;;;26.11;58.94
10978;BME280;5542;48.272;10.794;2023-06-22T07:50:44;95676.41;;;26.24;60.52
10978;BME280;5542;48.272;10.794;2023-06-22T07:53:10;95681.69;;;26.42;57.22
10978;BME280;5542;48.272;10.794;2023-06-22T07:55:37;95676.13;;;26.47;57.68
10978;BME280;5542;48.272;10.794;2023-06-22T07:58:03;95672.81;;;26.41;57.07
10978;BME280;5542;48.272;10.794;2023-06-22T08:00:31;95678.59;;;26.52;57.10
10978;BME280;5542;48.272;10.794;2023-06-22T08:02:58;95675.03;;;26.60;57.90
10978;BME280;5542;48.272;10.794;2023-06-22T08:05:25;95675.16;;;26.97;56.18
10978;BME280;5542;48.272;10.794;2023-06-22T08:07:53;95674.34;;;27.42;56.82
10978;BME280;5542;48.272;10.794;2023-06-22T08:10:20;95668.72;;;27.59;53.66
10978;BME280;5542;48.272;10.794;2023-06-22T08:12:49;95664.66;;;27.53;54.29
10978;BME280;5542;48.272;10.794;2023-06-22T08:15:17;95679.16;;;27.48;54.27
10978;BME280;5542;48.272;10.794;2023-06-22T08:17:45;95668.59;;;27.55;53.95
10978;BME280;5542;48.272;10.794;2023-06-22T08:20:12;95670.94;;;27.57;53.84
10978;BME280;5542;48.272;10.794;2023-06-22T08:22:38;95676.13;;;27.38;53.54
10978;BME280;5542;48.272;10.794;2023-06-22T08:25:06;95669.84;;;27.46;54.42
10978;BME280;5542;48.272;10.794;2023-06-22T08:27:35;95675.34;;;27.62;52.74
10978;BME280;5542;48.272;10.794;2023-06-22T08:30:04;95675.66;;;27.48;51.92
10978;BME280;5542;48.272;10.794;2023-06-22T08:32:30;95668.16;;;27.41;52.48
10978;BME280;5542;48.272;10.794;2023-06-22T08:34:59;95669.03;;;27.57;53.11
10978;BME280;5542;48.272;10.794;2023-06-22T08:37:26;95667.81;;;27.79;53.51
10978;BME280;5542;48.272;10.794;2023-06-22T08:39:56;95677.63;;;28.37;56.47
10978;BME280;5542;48.272;10.794;2023-06-22T08:42:25;95665.47;;;28.87;49.83
10978;BME280;5542;48.272;10.794;2023-06-22T08:44:52;95661.63;;;28.88;48.36
10978;BME280;5542;48.272;10.794;2023-06-22T08:47:19;95667.63;;;28.81;50.04
10978;BME280;5542;48.272;10.794;2023-06-22T08:49:45;95659.44;;;28.77;48.88
10978;BME280;5542;48.272;10.794;2023-06-22T08:52:14;95652.22;;;28.53;49.31
10978;BME280;5542;48.272;10.794;2023-06-22T08:54:40;95654.72;;;28.46;49.96
10978;BME280;5542;48.272;10.794;2023-06-22T08:57:07;95657.78;;;28.45;52.09
10978;BME280;5542;48.272;10.794;2023-06-22T08:59:33;95649.81;;;28.80;48.82
10978;BME280;5542;48.272;10.794;2023-06-22T09:02:00;95654.25;;;28.72;48.85
10978;BME280;5542;48.272;10.794;2023-06-22T09:04:26;95651.41;;;28.53;49.45
10978;BME280;5542;48.272;10.794;2023-06-22T09:06:53;95655.06;;;28.89;52.18
10978;BME280;5542;48.272;10.794;2023-06-22T09:09:21;95652.59;;;29.27;49.31
10978;BME280;5542;48.272;10.794;2023-06-22T09:11:48;95646.38;;;29.43;47.27
10978;BME280;5542;48.272;10.794;2023-06-22T09:14:15;95646.38;;;29.58;47.50
10978;BME280;5542;48.272;10.794;2023-06-22T09:16:41;95642.97;;;29.62;47.24
10978;BME280;5542;48.272;10.794;2023-06-22T09:19:08;95638.97;;;29.55;46.33
10978;BME280;5542;48.272;10.794;2023-06-22T09:21:34;95639.88;;;29.47;46.64
10978;BME280;5542;48.272;10.794;2023-06-22T09:24:01;95639.13;;;29.63;47.18
10978;BME280;5542;48.272;10.794;2023-06-22T09:26:29;95630.00;;;29.71;47.81
10978;BME280;5542;48.272;10.794;2023-06-22T09:28:56;95627.53;;;29.81;46.92
10978;BME280;5542;48.272;10.794;2023-06-22T09:31:23;95638.03;;;29.83;47.25
10978;BME280;5542;48.272;10.794;2023-06-22T09:33:51;95625.84;;;29.93;47.69
10978;BME280;5542;48.272;10.794;2023-06-22T09:36:18;95628.16;;;30.10;48.13
10978;BME280;5542;48.272;10.794;2023-06-22T09:38:44;95635.69;;;29.66;48.52
10978;BME280;5542;48.272;10.794;2023-06-22T09:41:11;95631.56;;;29.72;47.51
10978;BME280;5542;48.272;10.794;2023-06-22T09:43:39;95616.69;;;29.81;51.22
10978;BME280;5542;48.272;10.794;2023-06-22T09:46:06;95617.19;;;30.22;48.57
10978;BME280;5542;48.272;10.794;2023-06-22T09:48:34;95615.31;;;30.26;48.14
10978;BME280;5542;48.272;10.794;2023-06-22T09:51:01;95615.88;;;30.55;47.10
10978;BME280;5542;48.272;10.794;2023-06-22T09:53:27;95611.38;;;30.63;46.61
10978;BME280;5542;48.272;10.794;2023-06-22T09:55:54;95608.25;;;30.41;44.60
10978;BME280;5542;48.272;10.794;2023-06-22T09:58:20;95610.31;;;30.28;46.41
10978;BME280;5542;48.272;10.794;2023-06-22T10:00:48;95603.19;;;30.20;46.65
10978;BME280;5542;48.272;10.794;2023-06-22T10:03:15;95603.69;;;30.45;45.20
10978;BME280;5542;48.272;10.794;2023-06-22T10:05:42;95612.47;;;30.19;45.69
10978;BME280;5542;48.272;10.794;2023-06-22T10:08:08;95608.19;;;30.18;44.80
10978;BME280;5542;48.272;10.794;2023-06-22T10:10:35;95613.41;;;30.27;46.85
10978;BME280;5542;48.272;10.794;2023-06-22T10:13:07;95625.97;;;30.16;45.77
10978;BME280;5542;48.272;10.794;2023-06-22T10:15:34;95627.34;;;30.09;44.74
10978;BME280;5542;48.272;10.794;2023-06-22T10:18:02;95631.81;;;29.82;45.63
10978;BME280;5542;48.272;10.794;2023-06-22T10:20:29;95631.16;;;29.70;45.73
10978;BME280;5542;48.272;10.794;2023-06-22T10:22:55;95634.47;;;29.98;49.24
10978;BME280;5542;48.272;10.794;2023-06-22T10:25:22;95625.59;;;30.37;44.61
10978;BME280;5542;48.272;10.794;2023-06-22T10:27:48;95624.50;;;30.60;45.62
10978;BME280;5542;48.272;10.794;2023-06-22T10:30:15;95629.06;;;30.56;44.94
10978;BME280;5542;48.272;10.794;2023-06-22T10:32:42;95627.00;;;30.69;46.32
10978;BME280;5542;48.272;10.794;2023-06-22T10:35:10;95629.22;;;31.06;46.43
10978;BME280;5542;48.272;10.794;2023-06-22T10:37:38;95613.78;;;31.59;43.68
10978;BME280;5542;48.272;10.794;2023-06-22T10:40:06;95620.44;;;31.89;42.91
10978;BME280;5542;48.272;10.794;2023-06-22T10:42:33;95614.03;;;32.04;41.63
10978;BME280;5542;48.272;10.794;2023-06-22T10:45:00;95609.66;;;31.96;41.05
10978;BME280;5542;48.272;10.794;2023-06-22T10:47:26;95619.72;;;31.95;41.46
10978;BME280;5542;48.272;10.794;2023-06-22T10:49:53;95617.81;;;32.26;41.63
10978;BME280;5542;48.272;10.794;2023-06-22T10:52:21;95604.66;;;32.65;39.81
10978;BME280;5542;48.272;10.794;2023-06-22T10:54:47;95610.91;;;32.69;42.48
10978;BME280;5542;48.272;10.794;2023-06-22T10:57:14;95615.94;;;33.01;41.41
10978;BME280;5542;48.272;10.794;2023-06-22T10:59:40;95609.16;;;33.32;40.35
10978;BME280;5542;48.272;10.794;2023-06-22T11:02:07;95605.44;;;33.51;40.89
10978;BME280;5542;48.272;10.794;2023-06-22T11:04:33;95605.97;;;33.74;39.60
10978;BME280;5542;48.272;10.794;2023-06-22T11:07:00;95599.91;;;33.95;37.46
10978;BME280;5542;48.272;10.794;2023-06-22T11:09:28;95603.66;;;33.76;38.51
10978;BME280;5542;48.272;10.794;2023-06-22T11:11:55;95603.16;;;33.60;37.03
10978;BME280;5542;48.272;10.794;2023-06-22T11:14:23;95610.88;;;33.51;39.46
10978;BME280;5542;48.272;10.794;2023-06-22T11:16:50;95610.50;;;33.49;39.93
10978;BME280;5542;48.272;10.794;2023-06-22T11:19:17;95597.75;;;33.67;38.95
10978;BME280;5542;48.272;10.794;2023-06-22T11:21:43;95589.25;;;33.83;37.48
10978;BME280;5542;48.272;10.794;2023-06-22T11:24:10;95591.84;;;33.58;37.53
10978;BME280;5542;48.272;10.794;2023-06-22T11:26:38;95595.03;;;33.71;39.07
10978;BME280;5542;48.272;10.794;2023-06-22T11:29:05;95584.72;;;34.01;36.94
10978;BME280;5542;48.272;10.794;2023-06-22T11:31:31;95583.66;;;34.31;37.77
10978;BME280;5542;48.272;10.794;2023-06-22T11:33:58;95579.69;;;34.10;35.94
10978;BME280;5542;48.272;10.794;2023-06-22T11:36:25;95575.38;;;34.06;35.53
10978;BME280;5542;48.272;10.794;2023-06-22T11:38:52;95568.66;;;33.85;36.95
10978;BME280;5542;48.272;10.794;2023-06-22T11:41:18;95559.66;;;33.81;38.67
10978;BME280;5542;48.272;10.794;2023-06-22T11:43:46;95564.75;;;33.94;37.31
10978;BME280;5542;48.272;10.794;2023-06-22T11:46:13;95571.59;;;33.59;37.67
10978;BME280;5542;48.272;10.794;2023-06-22T11:48:39;95559.31;;;33.31;38.22
10978;BME280;5542;48.272;10.794;2023-06-22T11:51:06;95558.97;;;33.36;38.75
10978;BME280;5542;48.272;10.794;2023-06-22T11:53:33;95562.59;;;33.48;38.98
10978;BME280;5542;48.272;10.794;2023-06-22T11:56:00;95561.47;;;33.59;37.84
10978;BME280;5542;48.272;10.794;2023-06-22T11:58:27;95547.47;;;33.57;39.48
10978;BME280;5542;48.272;10.794;2023-06-22T12:00:55;95551.03;;;33.72;38.78
10978;BME280;5542;48.272;10.794;2023-06-22T12:03:22;95549.50;;;33.78;38.66
10978;BME280;5542;48.272;10.794;2023-06-22T12:05:49;95544.84;;;33.82;39.32
10978;BME280;5542;48.272;10.794;2023-06-22T12:08:16;95545.22;;;33.84;38.09
10978;BME280;5542;48.272;10.794;2023-06-22T12:10:42;95537.44;;;33.83;37.51
10978;BME280;5542;48.272;10.794;2023-06-22T12:13:09;95536.31;;;33.91;36.93
10978;BME280;5542;48.272;10.794;2023-06-22T12:15:36;95534.31;;;33.84;37.98
10978;BME280;5542;48.272;10.794;2023-06-22T12:18:04;95541.78;;;33.91;37.88
10978;BME280;5542;48.272;10.794;2023-06-22T12:20:30;95542.13;;;33.82;37.70
10978;BME280;5542;48.272;10.794;2023-06-22T12:22:58;95531.16;;;33.75;36.81
10978;BME280;5542;48.272;10.794;2023-06-22T12:25:24;95532.78;;;33.83;39.48
10978;BME280;5542;48.272;10.794;2023-06-22T12:27:51;95526.63;;;33.97;38.41
10978;BME280;5542;48.272;10.794;2023-06-22T12:30:17;95521.22;;;34.04;38.62
10978;BME280;5542;48.272;10.794;2023-06-22T12:32:44;95508.78;;;34.25;36.49
10978;BME280;5542;48.272;10.794;2023-06-22T12:35:12;95512.28;;;34.25;37.22
10978;BME280;5542;48.272;10.794;2023-06-22T12:37:40;95512.31;;;34.36;36.68
10978;BME280;5542;48.272;10.794;2023-06-22T12:40:08;95519.53;;;33.85;36.72
10978;BME280;5542;48.272;10.794;2023-06-22T12:42:35;95515.88;;;33.53;36.65
10978;BME280;5542;48.272;10.794;2023-06-22T12:45:01;95516.16;;;33.41;36.28
10978;BME280;5542;48.272;10.794;2023-06-22T12:47:28;95510.72;;;33.41;37.07
10978;BME280;5542;48.272;10.794;2023-06-22T12:49:55;95515.59;;;33.72;35.75
10978;BME280;5542;48.272;10.794;2023-06-22T12:52:22;95511.28;;;33.68;36.65
10978;BME280;5542;48.272;10.794;2023-06-22T12:54:49;95510.94;;;33.76;36.60
10978;BME280;5542;48.272;10.794;2023-06-22T12:57:16;95508.75;;;34.14;34.97
10978;BME280;5542;48.272;10.794;2023-06-22T12:59:44;95503.72;;;34.41;33.99
10978;BME280;5542;48.272;10.794;2023-06-22T13:02:11;95501.81;;;34.56;34.80